Time;durP1;ratioP1;P1;durP2;ratioP2;P2;SDS_P1;SDS_P2;PMS_P1;PMS_P2;Temp;Humidity;BMP_temperature;BMP_pressure;BME280_temperature;BME280_humidity;BME280_pressure;Samples;Min_cycle;Max_cycle;Signal;HPM_P1;HPM_P2
2021/01/03 00:00:28;;;;;;;51.22;31.65;;;;;;;6.74;67.15;100011.50;5034548;28;20025;-80
2021/01/03 00:02:54;;;;;;;47.17;29.65;;;;;;;7.01;67.29;100053.56;5033621;28;20396;-76
2021/01/03 00:05:24;;;;;;;43.58;26.27;;;;;;;7.10;66.69;100070.25;5034804;28;20043;-76
2021/01/03 00:07:50;;;;;;;33.53;24.13;;;;;;;6.67;67.16;100024.31;5033739;28;20337;-76
2021/01/03 00:10:17;;;;;;;69.70;37.92;;;;;;;6.75;66.83;100033.31;5034613;28;20087;-78
2021/01/03 00:12:42;;;;;;;38.53;24.37;;;;;;;6.60;66.92;100014.53;5033389;28;20347;-76
2021/01/03 00:15:15;;;;;;;33.58;21.95;;;;;;;6.93;66.59;100073.59;5033403;28;20108;-77
2021/01/03 00:17:41;;;;;;;35.45;24.33;;;;;;;6.21;66.39;99953.44;5034445;28;20028;-78
2021/01/03 00:20:09;;;;;;;36.03;24.70;;;;;;;6.71;66.19;100045.06;5034566;28;20052;-76
2021/01/03 00:22:34;;;;;;;36.50;24.30;;;;;;;6.11;66.60;99969.19;5035350;28;20458;-79
2021/01/03 00:25:00;;;;;;;35.77;24.20;;;;;;;6.76;66.74;100076.97;5038676;28;20093;-77
2021/01/03 00:27:25;;;;;;;36.10;23.93;;;;;;;6.15;66.72;99977.59;5038488;28;20344;-77
2021/01/03 00:29:50;;;;;;;35.53;22.85;;;;;;;6.29;66.82;100001.59;5038597;28;20036;-76
2021/01/03 00:32:16;;;;;;;42.30;26.60;;;;;;;6.43;66.78;100008.22;5037461;28;20386;-79
2021/01/03 00:34:42;;;;;;;41.20;26.95;;;;;;;6.86;66.80;100062.03;5038441;28;20032;-77
2021/01/03 00:37:07;;;;;;;42.10;28.30;;;;;;;6.90;66.29;100064.22;5038513;28;20492;-78
2021/01/03 00:39:33;;;;;;;43.17;27.73;;;;;;;6.71;66.65;100022.28;5038331;28;20352;-76
2021/01/03 00:41:58;;;;;;;45.38;29.02;;;;;;;6.56;66.69;99982.50;5037341;28;20447;-76
2021/01/03 00:44:23;;;;;;;43.27;28.47;;;;;;;6.73;66.63;100011.63;5038047;28;20036;-76
2021/01/03 00:46:49;;;;;;;43.60;29.00;;;;;;;6.58;66.69;99988.44;5038227;28;20033;-78
2021/01/03 00:49:14;;;;;;;41.43;27.47;;;;;;;7.03;66.77;100040.28;5038215;28;20428;-76
2021/01/03 00:51:40;;;;;;;62.28;35.97;;;;;;;6.34;66.57;99927.75;5037983;28;20025;-75
2021/01/03 00:54:05;;;;;;;76.03;39.60;;;;;;;7.06;66.40;100040.00;5037068;28;20048;-75
2021/01/03 00:56:31;;;;;;;58.73;35.37;;;;;;;6.94;66.89;100015.72;5036894;28;20025;-74
2021/01/03 00:58:56;;;;;;;49.03;30.73;;;;;;;7.11;66.80;100040.38;5038077;28;20348;-76
2021/01/03 01:01:22;;;;;;;47.33;29.88;;;;;;;7.13;66.43;100045.50;5037959;28;20025;-75
2021/01/03 01:03:48;;;;;;;42.17;28.95;;;;;;;7.14;66.64;100042.72;5038119;28;20025;-76
2021/01/03 01:06:14;;;;;;;43.33;28.88;;;;;;;7.02;66.60;100025.50;5036998;28;20033;-75
2021/01/03 01:08:39;;;;;;;44.47;29.52;;;;;;;6.88;67.20;99990.03;5037901;28;20017;-75
2021/01/03 01:11:06;;;;;;;48.67;32.43;;;;;;;7.04;67.04;100018.31;5038012;28;20026;-75
2021/01/03 01:13:32;;;;;;;47.65;28.83;;;;;;;6.78;66.83;99970.06;5036589;28;20343;-81
2021/01/03 01:15:57;;;;;;;44.38;27.60;;;;;;;7.16;66.43;100011.91;5037644;28;20025;-77
2021/01/03 01:18:23;;;;;;;45.53;29.43;;;;;;;6.29;67.05;99867.88;5037577;28;20019;-80
2021/01/03 01:20:48;;;;;;;38.92;27.33;;;;;;;6.80;66.45;99940.06;5037612;28;20021;-81
2021/01/03 01:23:14;;;;;;;40.78;28.20;;;;;;;6.32;66.54;99864.97;5037532;28;20037;-79
2021/01/03 01:25:39;;;;;;;42.65;27.08;;;;;;;6.82;66.95;99947.78;5037463;28;20049;-78
2021/01/03 01:28:05;;;;;;;46.58;31.05;;;;;;;6.75;66.35;99934.41;5037473;28;20082;-82
2021/01/03 01:30:33;;;;;;;45.40;31.40;;;;;;;7.22;66.64;99992.94;5037334;28;20104;-80
2021/01/03 01:33:00;;;;;;;49.90;31.88;;;;;;;6.90;66.85;99938.22;5036225;28;20074;-81
2021/01/03 01:35:31;;;;;;;43.40;30.90;;;;;;;7.41;66.33;100006.94;5036260;28;20116;-82
2021/01/03 01:37:56;;;;;;;49.13;31.60;;;;;;;7.21;66.51;99979.94;5037594;28;20060;-82
2021/01/03 01:40:27;;;;;;;47.60;31.17;;;;;;;7.42;66.94;100004.16;5036223;28;20061;-80
2021/01/03 01:42:53;;;;;;;45.35;30.23;;;;;;;7.43;67.01;99992.72;5037281;28;20108;-79
2021/01/03 01:45:22;;;;;;;45.95;31.60;;;;;;;6.78;66.87;99907.88;5037096;28;20104;-81
2021/01/03 01:47:51;;;;;;;46.35;31.13;;;;;;;6.90;66.59;99906.72;5037022;28;20033;-78
2021/01/03 01:50:21;;;;;;;51.07;32.87;;;;;;;7.37;66.41;99977.53;5037054;28;20037;-82
2021/01/03 01:52:52;;;;;;;47.72;31.70;;;;;;;7.06;67.08;99924.47;5035918;28;20026;-80
2021/01/03 01:55:33;;;;;;;52.00;34.25;;;;;;;7.33;66.44;99978.78;5035908;28;20032;-80
2021/01/03 01:58:19;;;;;;;54.33;33.77;;;;;;;7.07;67.23;99928.75;5036875;28;20034;-79
2021/01/03 02:00:50;;;;;;;56.17;33.88;;;;;;;7.26;66.94;99962.78;5036792;28;20112;-80
2021/01/03 02:03:51;;;;;;;55.88;36.03;;;;;;;7.45;67.38;99992.56;5035757;28;20032;-80
2021/01/03 02:06:28;;;;;;;61.90;36.87;;;;;;;7.39;67.39;99988.72;5035838;28;20364;-78
2021/01/03 02:09:01;;;;;;;60.92;38.35;;;;;;;7.48;67.70;100008.88;5036755;28;20452;-80
2021/01/03 02:11:29;;;;;;;55.85;35.15;;;;;;;7.36;67.05;100002.13;5035695;28;20112;-79
2021/01/03 02:13:57;;;;;;;56.08;37.08;;;;;;;7.42;67.01;99992.84;5036794;28;20021;-80
2021/01/03 02:16:25;;;;;;;62.65;38.92;;;;;;;7.50;67.45;100004.28;5035615;28;20450;-79
2021/01/03 02:18:52;;;;;;;55.60;37.33;;;;;;;7.49;66.56;99996.56;5036499;28;20033;-80
2021/01/03 02:21:30;;;;;;;54.08;34.33;;;;;;;7.48;66.51;99994.91;5036522;28;20025;-80
2021/01/03 02:24:17;;;;;;;50.65;33.53;;;;;;;7.28;67.21;99971.34;5035317;28;20033;-81
2021/01/03 02:26:59;;;;;;;46.47;29.88;;;;;;;7.30;66.75;99985.16;5036436;28;20104;-80
2021/01/03 02:29:27;;;;;;;48.58;31.02;;;;;;;7.12;66.76;99960.66;5036275;28;20029;-81
2021/01/03 02:31:57;;;;;;;48.63;27.75;;;;;;;7.06;67.47;99955.16;5036321;28;20112;-77
2021/01/03 02:34:29;;;;;;;58.22;34.90;;;;;;;6.73;67.07;99918.00;5036365;28;20061;-81
2021/01/03 02:37:00;;;;;;;49.45;31.55;;;;;;;7.23;67.23;99981.47;5035618;28;20305;-80
2021/01/03 02:39:50;;;;;;;53.75;29.90;;;;;;;7.26;67.35;99975.91;5036164;28;20396;-78
2021/01/03 02:42:20;;;;;;;51.92;30.52;;;;;;;7.27;67.31;99972.31;5036106;28;20033;-80
2021/01/03 02:44:46;;;;;;;56.43;32.00;;;;;;;6.62;67.14;99863.06;5035573;28;20049;-81
2021/01/03 02:47:12;;;;;;;53.97;28.05;;;;;;;6.95;67.34;99920.25;5035992;28;20025;-79
2021/01/03 02:49:37;;;;;;;45.88;30.15;;;;;;;7.32;67.48;99964.81;5034689;28;20036;-78
2021/01/03 02:52:08;;;;;;;54.25;30.38;;;;;;;7.36;67.75;99967.97;5036256;28;20108;-80
2021/01/03 02:54:33;;;;;;;56.20;31.27;;;;;;;7.39;67.75;99959.81;5035791;28;20033;-79
2021/01/03 02:56:59;;;;;;;50.97;30.08;;;;;;;6.97;67.55;99899.94;5035873;28;20033;-79
2021/01/03 02:59:26;;;;;;;54.70;30.77;;;;;;;7.39;67.86;99951.09;5035864;28;20022;-79
2021/01/03 03:01:52;;;;;;;54.85;32.70;;;;;;;6.76;67.52;99838.97;5035775;28;20025;-80
2021/01/03 03:04:17;;;;;;;55.85;31.88;;;;;;;7.10;67.75;99898.75;5035726;28;20490;-80
2021/01/03 03:06:42;;;;;;;52.67;30.37;;;;;;;7.37;67.92;99943.38;5035663;28;20025;-80
2021/01/03 03:09:08;;;;;;;46.43;29.23;;;;;;;6.88;67.59;99884.22;5035649;28;20025;-79
2021/01/03 03:11:33;;;;;;;49.42;28.95;;;;;;;6.97;67.56;99878.94;5034341;28;20043;-81
2021/01/03 03:13:58;;;;;;;57.88;31.58;;;;;;;7.40;67.79;99939.63;5034438;28;20108;-81
2021/01/03 03:16:24;;;;;;;57.42;30.98;;;;;;;7.10;67.91;99904.00;5035571;28;20343;-82
2021/01/03 03:18:49;;;;;;;41.53;24.08;;;;;;;7.41;67.40;99946.53;5035303;28;20097;-81
2021/01/03 03:21:19;;;;;;;44.10;25.52;;;;;;;7.10;67.90;99898.75;5035442;28;20026;-82
2021/01/03 03:23:44;;;;;;;43.13;24.80;;;;;;;7.44;67.40;99944.47;5035254;28;20151;-80
2021/01/03 03:26:10;;;;;;;40.28;22.90;;;;;;;7.24;68.29;99911.38;5035335;28;20025;-80
2021/01/03 03:28:35;;;;;;;38.00;22.48;;;;;;;7.30;68.01;99931.81;5034119;28;20368;-80
2021/01/03 03:31:01;;;;;;;30.13;17.90;;;;;;;7.51;68.25;99944.69;5034181;28;20026;-80
2021/01/03 03:33:26;;;;;;;33.30;17.30;;;;;;;7.44;68.38;99933.13;5035114;28;20116;-80
2021/01/03 03:35:51;;;;;;;33.38;17.73;;;;;;;7.30;67.94;99914.25;5035307;28;20022;-79
2021/01/03 03:38:17;;;;;;;29.42;17.60;;;;;;;7.11;68.31;99882.03;5034118;28;20431;-78
2021/01/03 03:40:42;;;;;;;27.23;15.90;;;;;;;6.94;67.89;99852.97;5034932;28;20021;-80
2021/01/03 03:43:08;;;;;;;24.15;15.45;;;;;;;7.32;68.47;99914.09;5033808;28;20059;-79
2021/01/03 03:45:34;;;;;;;25.55;15.55;;;;;;;7.52;68.25;99947.19;5034905;28;20022;-80
2021/01/03 03:47:59;;;;;;;28.00;15.43;;;;;;;6.99;68.44;99853.34;5035058;28;20025;-80
2021/01/03 03:50:25;;;;;;;26.13;14.27;;;;;;;7.51;68.58;99942.91;5034862;28;20436;-82
2021/01/03 03:52:51;;;;;;;30.48;15.52;;;;;;;7.53;68.50;99946.19;5034841;28;20026;-79
2021/01/03 03:55:17;;;;;;;30.33;16.83;;;;;;;7.44;68.62;99943.63;5033815;28;20017;-80
2021/01/03 03:57:43;;;;;;;28.15;16.42;;;;;;;7.51;69.11;99947.31;5032922;28;20025;-79
2021/01/03 04:00:13;;;;;;;29.38;14.02;;;;;;;6.89;68.89;99836.84;5034913;28;20025;-80
2021/01/03 04:02:45;;;;;;;30.70;14.93;;;;;;;7.01;68.90;99875.03;5034636;28;20056;-78
2021/01/03 04:05:15;;;;;;;29.17;14.65;;;;;;;7.51;69.09;99947.31;5034692;28;20104;-78
2021/01/03 04:07:40;;;;;;;30.55;14.23;;;;;;;6.96;68.73;99868.56;5033530;28;20037;-79
2021/01/03 04:10:06;;;;;;;29.13;15.27;;;;;;;7.41;68.77;99931.59;5034636;28;20037;-79
2021/01/03 04:12:32;;;;;;;27.30;16.13;;;;;;;7.42;68.65;99930.63;5034472;28;20052;-79
2021/01/03 04:14:58;;;;;;;32.00;16.90;;;;;;;6.86;68.88;99844.19;5033530;28;20397;-80
2021/01/03 04:17:23;;;;;;;33.17;16.58;;;;;;;7.23;69.08;99910.56;5034684;28;20029;-79
2021/01/03 04:19:48;;;;;;;37.28;16.10;;;;;;;7.49;68.80;99936.97;5034565;28;20025;-80
2021/01/03 04:22:14;;;;;;;29.70;16.83;;;;;;;7.47;69.22;99943.34;5034546;28;20029;-78
2021/01/03 04:24:39;;;;;;;28.38;15.23;;;;;;;6.87;69.54;99864.19;5033262;28;20064;-79
2021/01/03 04:27:07;;;;;;;27.10;13.50;;;;;;;7.44;69.79;99938.38;5033456;28;20033;-79
2021/01/03 04:29:33;;;;;;;22.63;12.52;;;;;;;7.24;69.40;99909.56;5034397;28;20032;-78
2021/01/03 04:32:05;;;;;;;21.15;11.35;;;;;;;7.44;69.77;99930.50;5034560;28;20325;-79
2021/01/03 04:34:31;;;;;;;18.10;10.35;;;;;;;7.34;69.10;99926.09;5034411;28;20023;-77
2021/01/03 04:36:58;;;;;;;18.00;9.68;;;;;;;7.43;69.41;99920.94;5034558;28;20352;-78
2021/01/03 04:39:26;;;;;;;14.70;9.40;;;;;;;7.43;70.01;99911.28;5034518;28;20105;-79
2021/01/03 04:42:01;;;;;;;14.80;9.90;;;;;;;7.45;70.03;99908.50;5033231;28;20072;-78
2021/01/03 04:44:48;;;;;;;16.67;8.82;;;;;;;7.43;70.04;99906.03;5034348;28;20060;-79
2021/01/03 04:47:14;;;;;;;12.65;7.95;;;;;;;7.40;70.12;99895.78;5034336;28;20034;-79
2021/01/03 04:49:45;;;;;;;12.75;8.43;;;;;;;7.07;69.61;99865.75;5034027;28;20420;-77
2021/01/03 04:52:32;;;;;;;14.30;8.23;;;;;;;6.66;70.17;99790.94;5033303;28;20036;-80
2021/01/03 04:55:09;;;;;;;15.07;8.70;;;;;;;7.28;69.80;99892.56;5034328;28;20028;-79
2021/01/03 04:57:51;;;;;;;16.10;9.50;;;;;;;7.11;70.22;99872.34;5034315;28;20060;-80
2021/01/03 05:00:18;;;;;;;16.83;10.17;;;;;;;6.78;69.66;99817.84;5033224;28;20025;-78
2021/01/03 05:03:18;;;;;;;16.88;10.98;;;;;;;7.18;69.97;99880.47;5033985;28;20264;-78
2021/01/03 05:05:50;;;;;;;18.45;12.05;;;;;;;7.12;70.30;99870.53;5032350;28;20034;-79
2021/01/03 05:08:41;;;;;;;15.85;10.55;;;;;;;7.16;70.45;99898.16;5034664;28;20021;-80
2021/01/03 05:11:12;;;;;;;21.53;13.43;;;;;;;7.15;70.44;99897.34;5037787;28;20416;-80
2021/01/03 05:13:59;;;;;;;22.15;14.35;;;;;;;6.87;70.33;99857.16;5036611;28;20033;-78
2021/01/03 05:16:24;;;;;;;20.25;12.57;;;;;;;7.05;70.90;99885.25;5037947;28;20108;-77
2021/01/03 05:18:50;;;;;;;20.58;12.88;;;;;;;6.62;70.81;99823.69;5037616;28;20057;-76
2021/01/03 05:21:15;;;;;;;21.23;12.13;;;;;;;7.09;70.64;99878.72;5037869;28;20420;-77
2021/01/03 05:24:01;;;;;;;16.73;11.40;;;;;;;7.20;70.65;99902.16;5036388;28;20028;-78
2021/01/03 05:26:33;;;;;;;15.88;10.23;;;;;;;6.98;70.59;99864.00;5036635;28;20022;-78
2021/01/03 05:28:59;;;;;;;14.90;9.98;;;;;;;7.24;70.58;99903.50;5036576;28;20087;-76
2021/01/03 05:31:25;;;;;;;17.65;10.50;;;;;;;7.26;70.53;99907.63;5037468;28;20072;-79
2021/01/03 05:34:01;;;;;;;17.30;11.40;;;;;;;7.29;70.41;99898.63;5037386;28;20325;-76
2021/01/03 05:36:41;;;;;;;32.58;18.73;;;;;;;7.06;70.46;99871.13;5036234;28;20060;-75
2021/01/03 05:39:13;;;;;;;26.20;15.20;;;;;;;7.29;70.26;99911.75;5037518;28;20034;-77
2021/01/03 05:41:57;;;;;;;29.33;15.52;;;;;;;7.11;70.23;99882.03;5036098;28;20032;-79
2021/01/03 05:44:26;;;;;;;27.50;15.38;;;;;;;7.34;70.31;99914.78;5036166;28;20026;-79
2021/01/03 05:47:02;;;;;;;30.55;15.57;;;;;;;7.38;70.05;99905.63;5037098;28;20029;-75
2021/01/03 05:49:28;;;;;;;30.77;15.75;;;;;;;7.13;70.21;99866.94;5036034;28;20037;-79
2021/01/03 05:52:23;;;;;;;25.50;15.75;;;;;;;7.41;70.94;99920.25;5037048;28;20104;-78
2021/01/03 05:54:51;;;;;;;31.40;20.13;;;;;;;7.21;70.27;99888.88;5036916;28;20412;-78
2021/01/03 05:57:29;;;;;;;30.17;20.02;;;;;;;7.42;70.65;99916.66;5035900;28;20098;-79
2021/01/03 05:59:55;;;;;;;32.00;20.17;;;;;;;6.73;70.33;99820.09;5036913;28;20041;-79
2021/01/03 06:02:27;;;;;;;35.33;23.50;;;;;;;7.20;70.55;99883.75;5036915;28;20029;-80
2021/01/03 06:05:05;;;;;;;29.10;18.10;;;;;;;7.42;70.49;99906.97;5035661;28;20151;-79
2021/01/03 06:07:32;;;;;;;29.23;17.73;;;;;;;7.43;70.23;99906.03;5036641;28;20429;-80
2021/01/03 06:09:57;;;;;;;30.37;18.43;;;;;;;7.49;70.13;99896.72;5036723;28;20036;-79
2021/01/03 06:12:28;;;;;;;30.90;18.77;;;;;;;7.05;70.71;99814.34;5036752;28;20025;-78
2021/01/03 06:15:05;;;;;;;29.27;19.60;;;;;;;7.44;70.02;99886.66;5036823;28;20055;-80
2021/01/03 06:17:32;;;;;;;32.33;22.10;;;;;;;7.46;70.59;99889.97;5036571;28;20080;-78
2021/01/03 06:20:07;;;;;;;38.95;25.50;;;;;;;7.36;70.54;99868.16;5035798;28;20030;-79
2021/01/03 06:22:45;;;;;;;39.30;24.83;;;;;;;7.45;70.40;99895.38;5035284;28;20171;-80
2021/01/03 06:25:45;;;;;;;39.58;24.70;;;;;;;7.48;70.46;99890.66;5035502;28;20068;-78
2021/01/03 06:28:22;;;;;;;37.22;25.13;;;;;;;7.50;71.02;99886.06;5036519;28;20104;-78
2021/01/03 06:31:12;;;;;;;38.60;24.33;;;;;;;7.56;70.08;99895.97;5036302;28;20033;-78
2021/01/03 06:33:52;;;;;;;34.53;21.20;;;;;;;7.52;70.20;99884.13;5035159;28;20029;-77
2021/01/03 06:36:20;;;;;;;37.47;21.50;;;;;;;7.62;69.98;99886.66;5036363;28;20032;-78
2021/01/03 06:39:00;;;;;;;33.78;20.13;;;;;;;7.63;70.66;99898.84;5036157;28;20026;-77
2021/01/03 06:41:48;;;;;;;35.40;19.95;;;;;;;7.16;70.21;99828.09;5035185;28;20030;-78
2021/01/03 06:44:38;;;;;;;30.75;18.90;;;;;;;7.64;70.77;99896.06;5035026;28;20029;-79
2021/01/03 06:47:24;;;;;;;31.60;20.42;;;;;;;7.37;70.77;99855.84;5035095;28;20044;-79
2021/01/03 06:50:08;;;;;;;38.15;19.90;;;;;;;7.40;70.17;99861.63;5035858;28;20120;-78
2021/01/03 06:52:43;;;;;;;49.13;28.10;;;;;;;7.60;70.59;99894.69;5035942;28;20138;-79
2021/01/03 06:55:27;;;;;;;30.65;19.45;;;;;;;7.71;70.22;99898.91;5036074;28;20112;-78
2021/01/03 06:58:02;;;;;;;31.60;17.98;;;;;;;7.37;70.50;99850.59;5034723;28;20034;-80
2021/01/03 07:00:42;;;;;;;35.20;21.05;;;;;;;7.50;70.10;99866.84;5035860;28;20034;-82
2021/01/03 07:03:22;;;;;;;36.50;21.23;;;;;;;7.76;69.99;99895.81;5035767;28;20029;-82
2021/01/03 07:05:59;;;;;;;30.05;19.25;;;;;;;7.68;69.83;99874.72;5035645;28;20025;-79
2021/01/03 07:08:28;;;;;;;26.13;16.05;;;;;;;7.82;70.10;99909.19;5035758;28;20030;-77
2021/01/03 07:10:54;;;;;;;28.30;16.35;;;;;;;7.52;69.82;99872.78;5035554;28;20043;-78
2021/01/03 07:13:40;;;;;;;26.08;15.65;;;;;;;7.80;70.81;99912.94;5035726;28;20025;-76
2021/01/03 07:16:09;;;;;;;30.15;17.38;;;;;;;7.86;70.66;99907.06;5034402;28;20029;-76
2021/01/03 07:18:56;;;;;;;40.13;19.75;;;;;;;7.49;70.53;99844.19;5035430;28;20432;-80
2021/01/03 07:21:44;;;;;;;34.70;19.38;;;;;;;7.34;70.10;99807.91;5035449;28;20399;-78
2021/01/03 07:24:24;;;;;;;34.70;19.40;;;;;;;7.95;70.06;99887.75;5035475;28;20349;-81
2021/01/03 07:27:28;;;;;;;32.10;18.80;;;;;;;7.99;70.57;99886.47;5034175;28;20025;-78
2021/01/03 07:30:15;;;;;;;35.50;20.65;;;;;;;8.04;70.28;99873.69;5035195;28;20036;-77
2021/01/03 07:32:40;;;;;;;35.78;21.85;;;;;;;8.07;69.58;99875.19;5034969;28;20395;-80
2021/01/03 07:35:21;;;;;;;37.13;22.33;;;;;;;8.09;70.38;99874.06;5034146;28;20033;-79
2021/01/03 07:37:48;;;;;;;31.45;18.20;;;;;;;8.11;69.63;99873.91;5035029;28;20025;-80
2021/01/03 07:40:16;;;;;;;32.40;19.65;;;;;;;8.13;69.69;99877.22;5034018;28;20440;-78
2021/01/03 07:42:45;;;;;;;30.15;18.25;;;;;;;8.13;70.28;99869.31;5034874;28;20029;-79
2021/01/03 07:45:13;;;;;;;37.67;19.98;;;;;;;8.12;69.70;99871.13;5034963;28;20029;-78
2021/01/03 07:47:44;;;;;;;32.33;18.83;;;;;;;8.13;69.79;99875.41;5034025;28;20439;-77
2021/01/03 07:50:23;;;;;;;32.50;18.52;;;;;;;8.17;69.84;99889.91;5035080;28;20078;-79
2021/01/03 07:52:54;;;;;;;33.20;20.80;;;;;;;8.23;69.71;99880.59;5034771;28;20033;-76
2021/01/03 07:55:22;;;;;;;35.30;18.90;;;;;;;8.25;69.73;99887.34;5034924;28;20025;-77
2021/01/03 07:58:00;;;;;;;30.92;18.40;;;;;;;7.81;70.07;99822.59;5034722;28;20467;-78
2021/01/03 08:00:37;;;;;;;32.35;19.13;;;;;;;8.29;69.61;99891.31;5035048;28;20429;-76
2021/01/03 08:03:10;;;;;;;31.48;19.02;;;;;;;8.05;69.62;99835.91;5034827;28;20090;-76
2021/01/03 08:05:37;;;;;;;40.47;21.02;;;;;;;8.38;69.85;99867.72;5034579;28;20458;-77
2021/01/03 08:08:28;;;;;;;35.13;19.88;;;;;;;8.42;70.16;99869.88;5033655;28;20033;-78
2021/01/03 08:11:31;;;;;;;36.80;21.25;;;;;;;8.31;69.94;99858.78;5034708;28;20046;-76
2021/01/03 08:14:05;;;;;;;46.15;26.67;;;;;;;8.46;69.69;99891.44;5034315;28;20041;-77
2021/01/03 08:16:32;;;;;;;46.60;28.77;;;;;;;8.38;69.59;99854.56;5034771;28;20029;-76
2021/01/03 08:19:05;;;;;;;43.60;27.52;;;;;;;8.62;69.87;99894.16;5034581;28;20087;-76
2021/01/03 08:21:37;;;;;;;38.88;23.45;;;;;;;8.72;69.85;99894.03;5034597;28;20033;-77
2021/01/03 08:24:14;;;;;;;39.75;25.08;;;;;;;8.59;69.43;99861.09;5033467;28;20106;-76
2021/01/03 08:26:44;;;;;;;45.72;26.92;;;;;;;8.84;69.14;99884.88;5034312;28;20112;-76
2021/01/03 08:29:28;;;;;;;49.97;29.80;;;;;;;8.89;69.09;99879.97;5033499;28;20029;-76
2021/01/03 08:31:59;;;;;;;47.22;30.75;;;;;;;8.83;69.11;99860.38;5033446;28;20425;-77
2021/01/03 08:34:32;;;;;;;49.03;30.58;;;;;;;9.00;69.19;99886.78;5034537;28;20028;-79
2021/01/03 08:36:58;;;;;;;52.50;29.58;;;;;;;8.95;69.42;99889.91;5034479;28;20030;-80
2021/01/03 08:39:28;;;;;;;49.08;28.35;;;;;;;9.12;68.68;99896.03;5033387;28;20037;-79
2021/01/03 08:42:02;;;;;;;46.95;27.42;;;;;;;9.17;69.07;99902.47;5034384;28;20044;-81
2021/01/03 08:44:38;;;;;;;39.33;24.92;;;;;;;8.69;69.08;99818.84;5037079;28;20087;-81
2021/01/03 08:47:10;;;;;;;37.58;22.90;;;;;;;9.23;69.49;99893.09;5038541;28;20026;-80
2021/01/03 08:49:36;;;;;;;43.42;23.52;;;;;;;9.20;68.80;99890.78;5037008;28;20021;-79
2021/01/03 08:52:09;;;;;;;41.47;23.42;;;;;;;9.11;69.13;99889.94;5038235;28;20032;-80
2021/01/03 08:54:34;;;;;;;35.35;22.10;;;;;;;9.19;69.19;99878.59;5038140;28;20052;-79
2021/01/03 08:57:02;;;;;;;38.88;22.67;;;;;;;9.02;68.81;99840.88;5038182;28;20429;-81
2021/01/03 08:59:28;;;;;;;40.08;22.45;;;;;;;9.04;69.04;99832.81;5038087;28;20489;-79
2021/01/03 09:01:54;;;;;;;44.70;24.88;;;;;;;8.87;69.01;99805.56;5038062;28;20124;-79
2021/01/03 09:04:20;;;;;;;41.70;23.92;;;;;;;8.93;68.77;99807.59;5036856;28;20083;-79
2021/01/03 09:06:57;;;;;;;42.33;25.08;;;;;;;9.44;69.28;99882.94;5037940;28;20041;-80
2021/01/03 09:09:29;;;;;;;42.75;25.52;;;;;;;9.50;68.61;99876.19;5038130;28;20033;-80
2021/01/03 09:11:56;;;;;;;50.03;31.75;;;;;;;9.54;68.94;99880.16;5037784;28;20038;-78
2021/01/03 09:14:51;;;;;;;43.63;25.52;;;;;;;9.52;69.15;99876.84;5037866;28;20029;-81
2021/01/03 09:17:20;;;;;;;37.00;22.25;;;;;;;9.56;68.90;99878.19;5037856;28;20021;-80
2021/01/03 09:19:53;;;;;;;34.97;20.85;;;;;;;9.57;68.96;99880.66;5037573;28;20033;-79
2021/01/03 09:22:43;;;;;;;34.25;22.42;;;;;;;8.99;69.23;99795.59;5037899;28;20025;-80
2021/01/03 09:25:15;;;;;;;38.80;23.05;;;;;;;9.50;69.45;99874.38;5037646;28;20088;-81
2021/01/03 09:27:41;;;;;;;39.15;23.30;;;;;;;9.26;69.22;99841.91;5037433;28;20029;-81
2021/01/03 09:30:17;;;;;;;40.25;22.05;;;;;;;9.47;69.46;99873.88;5037609;28;20037;-83
2021/01/03 09:32:47;;;;;;;36.83;21.10;;;;;;;9.20;69.28;99825.75;5037635;28;20482;-81
2021/01/03 09:35:50;;;;;;;35.58;19.75;;;;;;;9.46;69.85;99872.22;5037402;28;20352;-81
2021/01/03 09:38:40;;;;;;;32.55;20.48;;;;;;;9.46;69.57;99869.59;5037418;28;20033;-82
2021/01/03 09:41:37;;;;;;;37.50;22.90;;;;;;;9.47;69.80;99866.81;5037427;28;20112;-81
2021/01/03 09:44:22;;;;;;;47.88;27.88;;;;;;;9.51;69.27;99870.75;5036922;28;20106;-81
2021/01/03 09:46:59;;;;;;;51.25;30.05;;;;;;;9.51;69.83;99860.22;5036163;28;20117;-80
2021/01/03 09:49:36;;;;;;;58.42;36.38;;;;;;;9.39;69.75;99829.91;5036070;28;20435;-79
2021/01/03 09:52:29;;;;;;;67.03;41.80;;;;;;;9.62;69.88;99845.06;5044243;23;20125;-79
2021/01/03 09:55:06;;;;;;;78.43;47.80;;;;;;;9.67;70.03;99842.78;5035651;28;20033;-79
2021/01/03 09:57:38;;;;;;;79.50;52.05;;;;;;;9.73;70.07;99842.13;5037344;28;20063;-81
2021/01/03 10:00:11;;;;;;;84.47;56.28;;;;;;;9.78;69.97;99830.09;5037262;28;20026;-78
2021/01/03 10:02:36;;;;;;;88.25;58.25;;;;;;;9.76;70.31;99825.97;5035747;28;20048;-80
2021/01/03 10:05:04;;;;;;;91.35;60.00;;;;;;;9.86;70.16;99834.53;5036811;28;20104;-79
2021/01/03 10:07:30;;;;;;;93.55;55.75;;;;;;;9.61;70.18;99799.44;5036738;28;20029;-81
2021/01/03 10:10:01;;;;;;;77.88;48.78;;;;;;;9.73;70.21;99821.03;5036770;28;20036;-80
2021/01/03 10:12:29;;;;;;;64.57;38.00;;;;;;;9.96;69.97;99848.38;5035552;28;20489;-79
2021/01/03 10:15:20;;;;;;;51.03;33.35;;;;;;;9.52;70.85;99782.78;5036485;28;20025;-80
2021/01/03 10:18:26;;;;;;;42.90;24.65;;;;;;;9.92;71.21;99848.88;5036292;28;20045;-79
2021/01/03 10:20:52;;;;;;;35.58;22.13;;;;;;;9.72;70.64;99825.47;5036233;28;20045;-79
2021/01/03 10:23:40;;;;;;;40.90;22.40;;;;;;;9.81;70.96;99834.22;5036661;28;20028;-80
2021/01/03 10:26:18;;;;;;;37.05;22.25;;;;;;;9.73;70.97;99821.03;5035531;28;20124;-79
2021/01/03 10:28:43;;;;;;;39.17;23.20;;;;;;;9.82;70.50;99804.22;5035304;28;20033;-80
2021/01/03 10:31:09;;;;;;;41.22;24.77;;;;;;;9.95;70.43;99819.53;5036394;28;20349;-81
2021/01/03 10:33:34;;;;;;;43.13;26.00;;;;;;;9.39;70.26;99731.56;5036424;28;20029;-79
2021/01/03 10:36:00;;;;;;;39.17;26.17;;;;;;;9.97;70.57;99833.38;5036189;28;20033;-80
2021/01/03 10:38:25;;;;;;;43.95;27.48;;;;;;;9.85;70.51;99807.34;5036347;28;20036;-79
2021/01/03 10:40:50;;;;;;;52.75;32.08;;;;;;;9.92;70.81;99811.94;5036101;28;20095;-81
2021/01/03 10:43:16;;;;;;;44.42;28.38;;;;;;;10.04;70.56;99811.44;5036007;28;20035;-80
2021/01/03 10:45:41;;;;;;;43.63;27.40;;;;;;;9.73;70.37;99755.94;5035992;28;20048;-82
2021/01/03 10:48:07;;;;;;;41.72;25.98;;;;;;;9.80;70.71;99754.28;5036183;28;20029;-79
2021/01/03 10:50:32;;;;;;;40.67;26.40;;;;;;;10.19;70.72;99817.66;5036075;28;20034;-80
2021/01/03 10:52:58;;;;;;;36.38;24.17;;;;;;;10.23;70.58;99814.72;5034803;28;20033;-79
2021/01/03 10:55:23;;;;;;;46.50;30.10;;;;;;;10.25;70.55;99795.09;5035982;28;20084;-80
2021/01/03 10:57:50;;;;;;;43.22;27.20;;;;;;;10.31;70.53;99801.50;5035800;28;20025;-79
2021/01/03 11:00:17;;;;;;;35.67;26.45;;;;;;;10.32;70.80;99809.25;5035855;28;20120;-81
2021/01/03 11:02:43;;;;;;;41.47;27.13;;;;;;;10.18;71.20;99776.44;5034533;28;20021;-79
2021/01/03 11:05:10;;;;;;;43.35;28.70;;;;;;;10.36;70.75;99822.94;5035868;28;20325;-81
2021/01/03 11:07:35;;;;;;;53.08;35.58;;;;;;;10.19;70.36;99772.00;5035336;28;20025;-80
2021/01/03 11:10:02;;;;;;;50.25;34.33;;;;;;;10.28;70.71;99800.03;5035514;28;20420;-81
2021/01/03 11:12:27;;;;;;;57.22;38.20;;;;;;;9.95;70.99;99719.31;5034420;28;20110;-81
2021/01/03 11:14:53;;;;;;;60.13;41.85;;;;;;;10.48;70.60;99793.38;5035515;28;20088;-81
2021/01/03 11:17:18;;;;;;;70.45;43.45;;;;;;;10.31;70.46;99759.28;5034454;28;20025;-81
2021/01/03 11:19:45;;;;;;;72.90;44.78;;;;;;;10.21;70.73;99729.63;5035435;28;20025;-80
2021/01/03 11:22:13;;;;;;;86.93;54.30;;;;;;;10.55;70.64;99775.03;5035614;28;20037;-81
2021/01/03 11:24:40;;;;;;;84.40;51.92;;;;;;;10.71;70.43;99797.91;5035228;28;20025;-80
2021/01/03 11:27:14;;;;;;;66.32;42.75;;;;;;;10.00;70.24;99680.88;5035268;28;20359;-82
2021/01/03 11:29:39;;;;;;;56.55;36.47;;;;;;;10.70;71.05;99793.63;5035207;28;20428;-82
2021/01/03 11:32:10;;;;;;;59.53;36.17;;;;;;;10.35;70.45;99736.81;5034225;28;20032;-81
2021/01/03 11:34:36;;;;;;;56.25;34.88;;;;;;;10.27;70.37;99727.13;5035337;28;20037;-81
2021/01/03 11:37:13;;;;;;;42.30;29.58;;;;;;;10.82;70.22;99806.25;5035054;28;20325;-80
2021/01/03 11:39:39;;;;;;;40.00;25.55;;;;;;;10.26;69.84;99732.56;5035073;28;20041;-79
2021/01/03 11:42:12;;;;;;;45.03;29.23;;;;;;;10.90;70.09;99815.13;5035157;28;20487;-77
2021/01/03 11:44:40;;;;;;;41.88;23.90;;;;;;;10.92;69.90;99813.16;5035063;28;20025;-78